sensor_id;sensor_type;location;lat;lon;timestamp;P1;durP1;ratioP1;P2;durP2;ratioP2
33579;SDS011;19909;43.644;-79.438;2024-01-27T00:00:50;1.00;;;0.60;;
33579;SDS011;19909;43.644;-79.438;2024-01-27T00:03:18;0.70;;;0.50;;
33579;SDS011;19909;43.644;-79.438;2024-01-27T00:05:44;0.57;;;0.50;;
33579;SDS011;19909;43.644;-79.438;2024-01-27T00:08:11;1.40;;;0.70;;
33579;SDS011;19909;43.644;-79.438;2024-01-27T00:10:38;3.67;;;0.73;;
33579;SDS011;19909;43.644;-79.438;2024-01-27T00:13:05;0.60;;;0.40;;
33579;SDS011;19909;43.644;-79.438;2024-01-27T00:15:31;1.17;;;0.57;;
33579;SDS011;19909;43.644;-79.438;2024-01-27T00:17:58;1.70;;;0.57;;
33579;SDS011;19909;43.644;-79.438;2024-01-27T00:20:24;2.03;;;0.47;;
33579;SDS011;19909;43.644;-79.438;2024-01-27T00:22:50;1.80;;;0.40;;
33579;SDS011;19909;43.644;-79.438;2024-01-27T00:25:17;0.80;;;0.43;;
33579;SDS011;19909;43.644;-79.438;2024-01-27T00:27:45;1.58;;;0.50;;
33579;SDS011;19909;43.644;-79.438;2024-01-27T00:30:11;1.40;;;0.60;;
33579;SDS011;19909;43.644;-79.438;2024-01-27T00:32:38;1.45;;;0.75;;
33579;SDS011;19909;43.644;-79.438;2024-01-27T00:35:07;1.67;;;0.80;;
33579;SDS011;19909;43.644;-79.438;2024-01-27T00:37:34;0.68;;;0.50;;
33579;SDS011;19909;43.644;-79.438;2024-01-27T00:40:01;0.82;;;0.63;;
33579;SDS011;19909;43.644;-79.438;2024-01-27T00:42:30;1.10;;;0.60;;
33579;SDS011;19909;43.644;-79.438;2024-01-27T00:44:56;1.20;;;0.80;;
33579;SDS011;19909;43.644;-79.438;2024-01-27T00:47:23;1.48;;;0.80;;
33579;SDS011;19909;43.644;-79.438;2024-01-27T00:49:53;0.80;;;0.70;;
33579;SDS011;19909;43.644;-79.438;2024-01-27T00:52:22;3.28;;;1.00;;
33579;SDS011;19909;43.644;-79.438;2024-01-27T00:54:49;1.00;;;0.70;;
33579;SDS011;19909;43.644;-79.438;2024-01-27T00:57:15;1.77;;;0.90;;
33579;SDS011;19909;43.644;-79.438;2024-01-27T00:59:42;1.08;;;0.90;;
33579;SDS011;19909;43.644;-79.438;2024-01-27T01:02:10;0.93;;;0.73;;
33579;SDS011;19909;43.644;-79.438;2024-01-27T01:04:37;0.70;;;0.70;;
33579;SDS011;19909;43.644;-79.438;2024-01-27T01:07:04;0.80;;;0.60;;
33579;SDS011;19909;43.644;-79.438;2024-01-27T01:09:30;0.60;;;0.60;;
33579;SDS011;19909;43.644;-79.438;2024-01-27T01:11:56;1.23;;;0.70;;
33579;SDS011;19909;43.644;-79.438;2024-01-27T01:14:22;1.23;;;0.85;;
33579;SDS011;19909;43.644;-79.438;2024-01-27T01:16:49;0.90;;;0.60;;
33579;SDS011;19909;43.644;-79.438;2024-01-27T01:19:17;1.05;;;0.90;;
33579;SDS011;19909;43.644;-79.438;2024-01-27T01:21:45;1.00;;;0.70;;
33579;SDS011;19909;43.644;-79.438;2024-01-27T01:24:12;0.80;;;0.65;;
33579;SDS011;19909;43.644;-79.438;2024-01-27T01:26:39;0.73;;;0.65;;
33579;SDS011;19909;43.644;-79.438;2024-01-27T01:29:11;1.20;;;0.73;;
33579;SDS011;19909;43.644;-79.438;2024-01-27T01:31:41;0.93;;;0.70;;
33579;SDS011;19909;43.644;-79.438;2024-01-27T01:34:10;0.98;;;0.77;;
33579;SDS011;19909;43.644;-79.438;2024-01-27T01:36:36;0.80;;;0.70;;
33579;SDS011;19909;43.644;-79.438;2024-01-27T01:39:03;0.80;;;0.75;;
33579;SDS011;19909;43.644;-79.438;2024-01-27T01:41:29;0.98;;;0.50;;
33579;SDS011;19909;43.644;-79.438;2024-01-27T01:43:56;1.95;;;1.00;;
33579;SDS011;19909;43.644;-79.438;2024-01-27T01:46:23;0.75;;;0.50;;
33579;SDS011;19909;43.644;-79.438;2024-01-27T01:48:49;0.90;;;0.35;;
33579;SDS011;19909;43.644;-79.438;2024-01-27T01:51:16;0.60;;;0.50;;
33579;SDS011;19909;43.644;-79.438;2024-01-27T01:53:47;0.40;;;0.40;;
33579;SDS011;19909;43.644;-79.438;2024-01-27T01:56:17;1.15;;;0.60;;
33579;SDS011;19909;43.644;-79.438;2024-01-27T01:58:44;0.95;;;0.70;;
33579;SDS011;19909;43.644;-79.438;2024-01-27T02:01:11;0.75;;;0.57;;
33579;SDS011;19909;43.644;-79.438;2024-01-27T02:03:37;0.82;;;0.68;;
33579;SDS011;19909;43.644;-79.438;2024-01-27T02:06:04;1.13;;;0.95;;
33579;SDS011;19909;43.644;-79.438;2024-01-27T02:08:31;1.00;;;0.60;;
33579;SDS011;19909;43.644;-79.438;2024-01-27T02:10:57;0.88;;;0.70;;
33579;SDS011;19909;43.644;-79.438;2024-01-27T02:13:23;1.17;;;0.57;;
33579;SDS011;19909;43.644;-79.438;2024-01-27T02:15:52;0.80;;;0.57;;
33579;SDS011;19909;43.644;-79.438;2024-01-27T02:18:24;0.98;;;0.73;;
33579;SDS011;19909;43.644;-79.438;2024-01-27T02:20:52;0.52;;;0.50;;
33579;SDS011;19909;43.644;-79.438;2024-01-27T02:23:20;0.52;;;0.40;;
33579;SDS011;19909;43.644;-79.438;2024-01-27T02:25:54;1.05;;;0.40;;
33579;SDS011;19909;43.644;-79.438;2024-01-27T02:28:23;1.80;;;0.40;;
33579;SDS011;19909;43.644;-79.438;2024-01-27T02:30:51;1.25;;;0.50;;
33579;SDS011;19909;43.644;-79.438;2024-01-27T02:33:20;0.40;;;0.40;;
33579;SDS011;19909;43.644;-79.438;2024-01-27T02:35:49;0.70;;;0.40;;
33579;SDS011;19909;43.644;-79.438;2024-01-27T02:38:19;1.02;;;0.52;;
33579;SDS011;19909;43.644;-79.438;2024-01-27T02:40:45;0.63;;;0.47;;
33579;SDS011;19909;43.644;-79.438;2024-01-27T02:43:15;0.50;;;0.40;;
33579;SDS011;19909;43.644;-79.438;2024-01-27T02:45:41;0.80;;;0.60;;
33579;SDS011;19909;43.644;-79.438;2024-01-27T02:48:07;0.85;;;0.55;;
33579;SDS011;19909;43.644;-79.438;2024-01-27T02:50:34;1.05;;;0.63;;
33579;SDS011;19909;43.644;-79.438;2024-01-27T02:53:03;1.85;;;0.70;;
33579;SDS011;19909;43.644;-79.438;2024-01-27T02:55:30;0.93;;;0.70;;
33579;SDS011;19909;43.644;-79.438;2024-01-27T02:57:56;0.80;;;0.52;;
33579;SDS011;19909;43.644;-79.438;2024-01-27T03:00:22;0.55;;;0.40;;
33579;SDS011;19909;43.644;-79.438;2024-01-27T03:02:48;2.00;;;0.50;;
33579;SDS011;19909;43.644;-79.438;2024-01-27T03:05:14;1.15;;;0.70;;
33579;SDS011;19909;43.644;-79.438;2024-01-27T03:07:41;0.85;;;0.73;;
33579;SDS011;19909;43.644;-79.438;2024-01-27T03:10:07;1.63;;;0.50;;
33579;SDS011;19909;43.644;-79.438;2024-01-27T03:12:34;0.63;;;0.50;;
33579;SDS011;19909;43.644;-79.438;2024-01-27T03:15:03;0.70;;;0.60;;
33579;SDS011;19909;43.644;-79.438;2024-01-27T03:17:31;1.13;;;0.80;;
33579;SDS011;19909;43.644;-79.438;2024-01-27T03:20:04;1.02;;;0.70;;
33579;SDS011;19909;43.644;-79.438;2024-01-27T03:22:33;1.83;;;0.43;;
33579;SDS011;19909;43.644;-79.438;2024-01-27T03:25:03;1.08;;;0.90;;
33579;SDS011;19909;43.644;-79.438;2024-01-27T03:27:30;0.60;;;0.50;;
33579;SDS011;19909;43.644;-79.438;2024-01-27T03:29:58;0.55;;;0.50;;
33579;SDS011;19909;43.644;-79.438;2024-01-27T03:35:01;1.00;;;0.60;;
33579;SDS011;19909;43.644;-79.438;2024-01-27T03:37:32;0.73;;;0.60;;
33579;SDS011;19909;43.644;-79.438;2024-01-27T03:40:01;0.65;;;0.50;;
33579;SDS011;19909;43.644;-79.438;2024-01-27T03:42:27;1.33;;;0.70;;
33579;SDS011;19909;43.644;-79.438;2024-01-27T03:45:00;1.90;;;0.75;;
33579;SDS011;19909;43.644;-79.438;2024-01-27T03:47:26;0.60;;;0.60;;
33579;SDS011;19909;43.644;-79.438;2024-01-27T03:49:53;1.25;;;0.60;;
33579;SDS011;19909;43.644;-79.438;2024-01-27T03:52:19;0.70;;;0.50;;
33579;SDS011;19909;43.644;-79.438;2024-01-27T03:54:46;0.85;;;0.70;;
33579;SDS011;19909;43.644;-79.438;2024-01-27T03:57:12;0.70;;;0.68;;
33579;SDS011;19909;43.644;-79.438;2024-01-27T03:59:41;1.25;;;0.70;;
33579;SDS011;19909;43.644;-79.438;2024-01-27T04:02:08;0.98;;;0.60;;
33579;SDS011;19909;43.644;-79.438;2024-01-27T04:04:34;0.88;;;0.68;;
33579;SDS011;19909;43.644;-79.438;2024-01-27T04:07:00;0.90;;;0.80;;
33579;SDS011;19909;43.644;-79.438;2024-01-27T04:09:29;1.17;;;0.70;;
33579;SDS011;19909;43.644;-79.438;2024-01-27T04:11:55;0.80;;;0.70;;
33579;SDS011;19909;43.644;-79.438;2024-01-27T04:14:24;1.10;;;0.93;;
33579;SDS011;19909;43.644;-79.438;2024-01-27T04:16:55;1.10;;;0.85;;
33579;SDS011;19909;43.644;-79.438;2024-01-27T04:19:24;1.00;;;0.90;;
33579;SDS011;19909;43.644;-79.438;2024-01-27T04:21:51;1.27;;;0.93;;
33579;SDS011;19909;43.644;-79.438;2024-01-27T04:24:17;1.17;;;0.82;;
33579;SDS011;19909;43.644;-79.438;2024-01-27T04:26:43;1.08;;;0.95;;
33579;SDS011;19909;43.644;-79.438;2024-01-27T04:29:09;1.17;;;1.02;;
33579;SDS011;19909;43.644;-79.438;2024-01-27T04:31:40;1.20;;;0.65;;
33579;SDS011;19909;43.644;-79.438;2024-01-27T04:34:07;0.88;;;0.80;;
33579;SDS011;19909;43.644;-79.438;2024-01-27T04:36:33;1.05;;;0.80;;
33579;SDS011;19909;43.644;-79.438;2024-01-27T04:39:00;1.38;;;0.82;;
33579;SDS011;19909;43.644;-79.438;2024-01-27T04:41:27;0.80;;;0.80;;
33579;SDS011;19909;43.644;-79.438;2024-01-27T04:43:53;1.45;;;1.23;;
33579;SDS011;19909;43.644;-79.438;2024-01-27T04:46:21;1.17;;;1.08;;
33579;SDS011;19909;43.644;-79.438;2024-01-27T04:48:48;1.20;;;0.93;;
33579;SDS011;19909;43.644;-79.438;2024-01-27T04:51:14;1.23;;;1.10;;
33579;SDS011;19909;43.644;-79.438;2024-01-27T04:53:41;1.13;;;1.02;;
33579;SDS011;19909;43.644;-79.438;2024-01-27T04:56:07;2.35;;;1.20;;
33579;SDS011;19909;43.644;-79.438;2024-01-27T04:58:35;0.75;;;0.68;;
33579;SDS011;19909;43.644;-79.438;2024-01-27T05:01:03;0.88;;;0.68;;
33579;SDS011;19909;43.644;-79.438;2024-01-27T05:03:29;1.30;;;1.20;;
33579;SDS011;19909;43.644;-79.438;2024-01-27T05:05:55;1.45;;;0.90;;
33579;SDS011;19909;43.644;-79.438;2024-01-27T05:08:21;1.08;;;0.90;;
33579;SDS011;19909;43.644;-79.438;2024-01-27T05:10:48;1.05;;;0.80;;
33579;SDS011;19909;43.644;-79.438;2024-01-27T05:13:14;1.35;;;1.02;;
33579;SDS011;19909;43.644;-79.438;2024-01-27T05:15:40;1.20;;;1.00;;
33579;SDS011;19909;43.644;-79.438;2024-01-27T05:18:06;1.20;;;0.98;;
33579;SDS011;19909;43.644;-79.438;2024-01-27T05:20:32;1.55;;;1.30;;
33579;SDS011;19909;43.644;-79.438;2024-01-27T05:22:59;1.20;;;1.10;;
33579;SDS011;19909;43.644;-79.438;2024-01-27T05:25:25;1.50;;;1.33;;
33579;SDS011;19909;43.644;-79.438;2024-01-27T05:27:51;1.73;;;1.40;;
33579;SDS011;19909;43.644;-79.438;2024-01-27T05:30:18;1.42;;;1.23;;
33579;SDS011;19909;43.644;-79.438;2024-01-27T05:32:44;2.22;;;1.40;;
33579;SDS011;19909;43.644;-79.438;2024-01-27T05:35:11;1.40;;;1.20;;
33579;SDS011;19909;43.644;-79.438;2024-01-27T05:37:37;1.50;;;1.40;;
33579;SDS011;19909;43.644;-79.438;2024-01-27T05:40:05;1.20;;;1.10;;
33579;SDS011;19909;43.644;-79.438;2024-01-27T05:42:33;1.40;;;1.02;;
33579;SDS011;19909;43.644;-79.438;2024-01-27T05:44:59;1.38;;;1.10;;
33579;SDS011;19909;43.644;-79.438;2024-01-27T05:47:27;1.55;;;0.90;;
33579;SDS011;19909;43.644;-79.438;2024-01-27T05:49:54;0.95;;;0.70;;
33579;SDS011;19909;43.644;-79.438;2024-01-27T05:52:20;1.15;;;0.85;;
33579;SDS011;19909;43.644;-79.438;2024-01-27T05:54:47;1.35;;;1.00;;
33579;SDS011;19909;43.644;-79.438;2024-01-27T05:57:14;1.15;;;0.90;;
33579;SDS011;19909;43.644;-79.438;2024-01-27T05:59:40;1.95;;;1.30;;
33579;SDS011;19909;43.644;-79.438;2024-01-27T06:02:06;1.08;;;0.93;;
33579;SDS011;19909;43.644;-79.438;2024-01-27T06:04:32;1.92;;;1.45;;
33579;SDS011;19909;43.644;-79.438;2024-01-27T06:06:59;1.80;;;1.55;;
33579;SDS011;19909;43.644;-79.438;2024-01-27T06:09:25;1.50;;;1.20;;
33579;SDS011;19909;43.644;-79.438;2024-01-27T06:11:52;1.77;;;1.20;;
33579;SDS011;19909;43.644;-79.438;2024-01-27T06:14:18;1.80;;;1.55;;
33579;SDS011;19909;43.644;-79.438;2024-01-27T06:16:44;1.60;;;1.27;;
33579;SDS011;19909;43.644;-79.438;2024-01-27T06:19:10;1.85;;;1.30;;
33579;SDS011;19909;43.644;-79.438;2024-01-27T06:21:37;2.25;;;1.10;;
33579;SDS011;19909;43.644;-79.438;2024-01-27T06:24:05;2.10;;;1.10;;
33579;SDS011;19909;43.644;-79.438;2024-01-27T06:26:31;2.03;;;1.40;;
33579;SDS011;19909;43.644;-79.438;2024-01-27T06:28:58;1.17;;;1.00;;
33579;SDS011;19909;43.644;-79.438;2024-01-27T06:31:25;1.38;;;1.02;;
33579;SDS011;19909;43.644;-79.438;2024-01-27T06:33:51;1.15;;;0.90;;
33579;SDS011;19909;43.644;-79.438;2024-01-27T06:36:18;1.40;;;1.00;;
33579;SDS011;19909;43.644;-79.438;2024-01-27T06:38:45;2.00;;;1.17;;
33579;SDS011;19909;43.644;-79.438;2024-01-27T06:41:11;1.30;;;1.20;;
33579;SDS011;19909;43.644;-79.438;2024-01-27T06:43:38;1.40;;;1.23;;
33579;SDS011;19909;43.644;-79.438;2024-01-27T06:46:04;2.10;;;1.60;;
33579;SDS011;19909;43.644;-79.438;2024-01-27T06:48:31;2.42;;;1.77;;
33579;SDS011;19909;43.644;-79.438;2024-01-27T06:50:58;2.47;;;2.08;;
33579;SDS011;19909;43.644;-79.438;2024-01-27T06:53:25;2.08;;;1.60;;
33579;SDS011;19909;43.644;-79.438;2024-01-27T06:55:51;1.88;;;1.30;;
33579;SDS011;19909;43.644;-79.438;2024-01-27T06:58:17;1.88;;;1.35;;
33579;SDS011;19909;43.644;-79.438;2024-01-27T07:00:44;1.85;;;1.20;;
33579;SDS011;19909;43.644;-79.438;2024-01-27T07:03:11;2.13;;;1.42;;
33579;SDS011;19909;43.644;-79.438;2024-01-27T07:05:38;1.75;;;1.38;;
33579;SDS011;19909;43.644;-79.438;2024-01-27T07:08:09;1.73;;;1.17;;
33579;SDS011;19909;43.644;-79.438;2024-01-27T07:10:35;1.73;;;1.20;;
33579;SDS011;19909;43.644;-79.438;2024-01-27T07:13:01;1.63;;;1.05;;
33579;SDS011;19909;43.644;-79.438;2024-01-27T07:15:28;1.35;;;1.13;;
33579;SDS011;19909;43.644;-79.438;2024-01-27T07:17:55;2.30;;;1.50;;
33579;SDS011;19909;43.644;-79.438;2024-01-27T07:20:22;2.17;;;1.30;;
33579;SDS011;19909;43.644;-79.438;2024-01-27T07:22:50;2.15;;;1.40;;
33579;SDS011;19909;43.644;-79.438;2024-01-27T07:25:16;2.38;;;1.70;;
33579;SDS011;19909;43.644;-79.438;2024-01-27T07:27:43;2.63;;;1.70;;
33579;SDS011;19909;43.644;-79.438;2024-01-27T07:30:09;2.65;;;2.00;;
33579;SDS011;19909;43.644;-79.438;2024-01-27T07:32:36;3.22;;;2.15;;
33579;SDS011;19909;43.644;-79.438;2024-01-27T07:35:03;3.38;;;2.00;;
33579;SDS011;19909;43.644;-79.438;2024-01-27T07:37:31;2.55;;;2.00;;
33579;SDS011;19909;43.644;-79.438;2024-01-27T07:39:57;2.60;;;2.40;;
33579;SDS011;19909;43.644;-79.438;2024-01-27T07:42:23;2.97;;;2.35;;
33579;SDS011;19909;43.644;-79.438;2024-01-27T07:44:49;2.42;;;1.83;;
33579;SDS011;19909;43.644;-79.438;2024-01-27T07:47:15;2.40;;;1.60;;
33579;SDS011;19909;43.644;-79.438;2024-01-27T07:49:42;2.47;;;1.85;;
33579;SDS011;19909;43.644;-79.438;2024-01-27T07:52:10;2.28;;;1.90;;
33579;SDS011;19909;43.644;-79.438;2024-01-27T07:54:36;2.25;;;1.75;;
33579;SDS011;19909;43.644;-79.438;2024-01-27T07:57:05;2.65;;;2.03;;
33579;SDS011;19909;43.644;-79.438;2024-01-27T07:59:32;1.52;;;1.42;;
33579;SDS011;19909;43.644;-79.438;2024-01-27T08:01:59;2.10;;;1.90;;
33579;SDS011;19909;43.644;-79.438;2024-01-27T08:04:26;2.78;;;2.10;;
33579;SDS011;19909;43.644;-79.438;2024-01-27T08:06:52;3.38;;;2.55;;
33579;SDS011;19909;43.644;-79.438;2024-01-27T08:09:19;3.75;;;2.53;;
33579;SDS011;19909;43.644;-79.438;2024-01-27T08:11:45;3.65;;;2.50;;
33579;SDS011;19909;43.644;-79.438;2024-01-27T08:14:17;3.63;;;2.67;;
33579;SDS011;19909;43.644;-79.438;2024-01-27T08:16:43;3.90;;;2.83;;
33579;SDS011;19909;43.644;-79.438;2024-01-27T08:19:09;3.78;;;2.72;;
33579;SDS011;19909;43.644;-79.438;2024-01-27T08:21:35;3.45;;;2.65;;
33579;SDS011;19909;43.644;-79.438;2024-01-27T08:24:02;4.45;;;2.97;;
33579;SDS011;19909;43.644;-79.438;2024-01-27T08:26:29;4.10;;;2.80;;
33579;SDS011;19909;43.644;-79.438;2024-01-27T08:28:58;2.30;;;1.80;;
33579;SDS011;19909;43.644;-79.438;2024-01-27T08:31:24;2.90;;;1.90;;
33579;SDS011;19909;43.644;-79.438;2024-01-27T08:33:50;3.53;;;2.20;;
33579;SDS011;19909;43.644;-79.438;2024-01-27T08:36:17;2.47;;;1.98;;
33579;SDS011;19909;43.644;-79.438;2024-01-27T08:38:43;2.45;;;1.90;;
33579;SDS011;19909;43.644;-79.438;2024-01-27T08:41:10;2.25;;;1.55;;
33579;SDS011;19909;43.644;-79.438;2024-01-27T08:43:36;3.20;;;2.22;;
33579;SDS011;19909;43.644;-79.438;2024-01-27T08:46:03;4.03;;;2.60;;
33579;SDS011;19909;43.644;-79.438;2024-01-27T08:48:30;4.97;;;3.28;;
33579;SDS011;19909;43.644;-79.438;2024-01-27T08:50:56;3.60;;;2.67;;
33579;SDS011;19909;43.644;-79.438;2024-01-27T08:53:22;4.28;;;3.22;;
33579;SDS011;19909;43.644;-79.438;2024-01-27T08:55:48;4.07;;;3.20;;
33579;SDS011;19909;43.644;-79.438;2024-01-27T08:58:15;3.65;;;3.05;;
33579;SDS011;19909;43.644;-79.438;2024-01-27T09:00:41;4.78;;;3.15;;
33579;SDS011;19909;43.644;-79.438;2024-01-27T09:03:08;4.45;;;3.38;;
33579;SDS011;19909;43.644;-79.438;2024-01-27T09:05:34;4.13;;;3.33;;
33579;SDS011;19909;43.644;-79.438;2024-01-27T09:08:00;4.50;;;2.80;;
33579;SDS011;19909;43.644;-79.438;2024-01-27T09:10:26;3.97;;;2.72;;
33579;SDS011;19909;43.644;-79.438;2024-01-27T09:12:54;3.35;;;2.75;;
33579;SDS011;19909;43.644;-79.438;2024-01-27T09:15:20;3.22;;;2.45;;
33579;SDS011;19909;43.644;-79.438;2024-01-27T09:17:47;3.10;;;2.42;;
33579;SDS011;19909;43.644;-79.438;2024-01-27T09:20:13;3.25;;;2.20;;
33579;SDS011;19909;43.644;-79.438;2024-01-27T09:22:40;3.30;;;2.10;;
33579;SDS011;19909;43.644;-79.438;2024-01-27T09:25:07;3.25;;;2.33;;
33579;SDS011;19909;43.644;-79.438;2024-01-27T09:27:34;5.25;;;3.13;;
33579;SDS011;19909;43.644;-79.438;2024-01-27T09:30:00;3.53;;;2.50;;
33579;SDS011;19909;43.644;-79.438;2024-01-27T09:32:27;4.32;;;2.90;;
33579;SDS011;19909;43.644;-79.438;2024-01-27T09:34:55;4.50;;;3.22;;
33579;SDS011;19909;43.644;-79.438;2024-01-27T09:37:21;4.80;;;3.42;;
33579;SDS011;19909;43.644;-79.438;2024-01-27T09:39:47;5.82;;;3.60;;
33579;SDS011;19909;43.644;-79.438;2024-01-27T09:42:13;4.82;;;3.58;;
33579;SDS011;19909;43.644;-79.438;2024-01-27T09:44:43;4.97;;;3.70;;
33579;SDS011;19909;43.644;-79.438;2024-01-27T09:47:10;5.60;;;4.15;;
33579;SDS011;19909;43.644;-79.438;2024-01-27T09:49:41;5.25;;;3.80;;
33579;SDS011;19909;43.644;-79.438;2024-01-27T09:52:10;6.23;;;3.47;;
33579;SDS011;19909;43.644;-79.438;2024-01-27T09:54:36;5.00;;;3.05;;
33579;SDS011;19909;43.644;-79.438;2024-01-27T09:57:05;3.85;;;2.63;;
33579;SDS011;19909;43.644;-79.438;2024-01-27T09:59:33;5.50;;;3.15;;
33579;SDS011;19909;43.644;-79.438;2024-01-27T10:02:02;3.92;;;2.65;;
33579;SDS011;19909;43.644;-79.438;2024-01-27T10:04:31;4.30;;;2.35;;
33579;SDS011;19909;43.644;-79.438;2024-01-27T10:06:59;5.07;;;2.90;;
33579;SDS011;19909;43.644;-79.438;2024-01-27T10:09:25;4.93;;;3.38;;
33579;SDS011;19909;43.644;-79.438;2024-01-27T10:11:51;5.43;;;4.15;;
33579;SDS011;19909;43.644;-79.438;2024-01-27T10:14:20;5.80;;;4.35;;
33579;SDS011;19909;43.644;-79.438;2024-01-27T10:16:47;6.53;;;4.18;;
33579;SDS011;19909;43.644;-79.438;2024-01-27T10:19:17;6.10;;;4.30;;
33579;SDS011;19909;43.644;-79.438;2024-01-27T10:21:47;7.43;;;4.50;;
33579;SDS011;19909;43.644;-79.438;2024-01-27T10:24:25;7.72;;;4.75;;
33579;SDS011;19909;43.644;-79.438;2024-01-27T10:26:58;6.63;;;4.40;;
33579;SDS011;19909;43.644;-79.438;2024-01-27T10:29:25;6.93;;;4.55;;
33579;SDS011;19909;43.644;-79.438;2024-01-27T10:31:52;7.32;;;4.47;;
33579;SDS011;19909;43.644;-79.438;2024-01-27T10:34:21;7.25;;;4.57;;
33579;SDS011;19909;43.644;-79.438;2024-01-27T10:36:47;7.13;;;4.05;;
33579;SDS011;19909;43.644;-79.438;2024-01-27T10:39:15;5.32;;;3.85;;
33579;SDS011;19909;43.644;-79.438;2024-01-27T10:41:49;4.57;;;3.55;;
33579;SDS011;19909;43.644;-79.438;2024-01-27T10:44:17;6.15;;;4.05;;
33579;SDS011;19909;43.644;-79.438;2024-01-27T10:46:47;6.32;;;3.70;;
33579;SDS011;19909;43.644;-79.438;2024-01-27T10:49:17;6.28;;;3.80;;
33579;SDS011;19909;43.644;-79.438;2024-01-27T10:51:46;5.45;;;3.33;;
33579;SDS011;19909;43.644;-79.438;2024-01-27T10:54:23;6.75;;;4.13;;
33579;SDS011;19909;43.644;-79.438;2024-01-27T10:56:54;7.18;;;4.78;;
33579;SDS011;19909;43.644;-79.438;2024-01-27T10:59:22;7.93;;;5.45;;
33579;SDS011;19909;43.644;-79.438;2024-01-27T11:01:52;6.68;;;4.30;;
33579;SDS011;19909;43.644;-79.438;2024-01-27T11:04:20;7.22;;;5.07;;
33579;SDS011;19909;43.644;-79.438;2024-01-27T11:06:47;10.25;;;5.40;;
33579;SDS011;19909;43.644;-79.438;2024-01-27T11:09:14;7.75;;;5.25;;
33579;SDS011;19909;43.644;-79.438;2024-01-27T11:11:44;8.38;;;5.68;;
33579;SDS011;19909;43.644;-79.438;2024-01-27T11:14:11;6.53;;;5.07;;
33579;SDS011;19909;43.644;-79.438;2024-01-27T11:16:38;8.98;;;5.43;;
33579;SDS011;19909;43.644;-79.438;2024-01-27T11:19:10;7.53;;;5.22;;
33579;SDS011;19909;43.644;-79.438;2024-01-27T11:21:37;6.63;;;4.30;;
33579;SDS011;19909;43.644;-79.438;2024-01-27T11:24:17;6.78;;;4.10;;
33579;SDS011;19909;43.644;-79.438;2024-01-27T11:26:44;5.93;;;3.75;;
33579;SDS011;19909;43.644;-79.438;2024-01-27T11:29:11;6.47;;;4.30;;
33579;SDS011;19909;43.644;-79.438;2024-01-27T11:31:46;5.32;;;3.22;;
33579;SDS011;19909;43.644;-79.438;2024-01-27T11:34:17;5.05;;;3.63;;
33579;SDS011;19909;43.644;-79.438;2024-01-27T11:36:45;5.57;;;4.00;;
33579;SDS011;19909;43.644;-79.438;2024-01-27T11:41:51;6.68;;;4.57;;
33579;SDS011;19909;43.644;-79.438;2024-01-27T11:44:19;7.10;;;4.82;;
33579;SDS011;19909;43.644;-79.438;2024-01-27T11:46:45;6.88;;;4.68;;
33579;SDS011;19909;43.644;-79.438;2024-01-27T11:49:14;5.80;;;4.40;;
33579;SDS011;19909;43.644;-79.438;2024-01-27T11:51:42;6.75;;;4.82;;
33579;SDS011;19909;43.644;-79.438;2024-01-27T11:54:09;7.20;;;5.20;;
33579;SDS011;19909;43.644;-79.438;2024-01-27T11:56:36;7.15;;;4.72;;
33579;SDS011;19909;43.644;-79.438;2024-01-27T11:59:02;8.18;;;5.10;;
33579;SDS011;19909;43.644;-79.438;2024-01-27T12:01:28;7.03;;;5.30;;
33579;SDS011;19909;43.644;-79.438;2024-01-27T12:03:55;6.82;;;4.60;;
33579;SDS011;19909;43.644;-79.438;2024-01-27T12:06:22;6.38;;;4.10;;
33579;SDS011;19909;43.644;-79.438;2024-01-27T12:08:48;6.78;;;4.35;;
33579;SDS011;19909;43.644;-79.438;2024-01-27T12:11:15;5.63;;;3.90;;
33579;SDS011;19909;43.644;-79.438;2024-01-27T12:13:42;6.13;;;3.50;;
33579;SDS011;19909;43.644;-79.438;2024-01-27T12:16:08;4.53;;;3.30;;
33579;SDS011;19909;43.644;-79.438;2024-01-27T12:18:35;3.90;;;2.72;;
33579;SDS011;19909;43.644;-79.438;2024-01-27T12:21:02;5.97;;;3.97;;
33579;SDS011;19909;43.644;-79.438;2024-01-27T12:23:30;5.50;;;4.03;;
33579;SDS011;19909;43.644;-79.438;2024-01-27T12:25:56;5.80;;;4.45;;
33579;SDS011;19909;43.644;-79.438;2024-01-27T12:28:23;5.95;;;4.35;;
33579;SDS011;19909;43.644;-79.438;2024-01-27T12:30:50;6.22;;;4.47;;
33579;SDS011;19909;43.644;-79.438;2024-01-27T12:33:17;6.25;;;4.80;;
33579;SDS011;19909;43.644;-79.438;2024-01-27T12:35:48;6.47;;;4.40;;
33579;SDS011;19909;43.644;-79.438;2024-01-27T12:38:17;7.15;;;5.18;;
33579;SDS011;19909;43.644;-79.438;2024-01-27T12:40:44;8.15;;;5.45;;
33579;SDS011;19909;43.644;-79.438;2024-01-27T12:43:11;6.43;;;5.00;;
33579;SDS011;19909;43.644;-79.438;2024-01-27T12:45:37;7.13;;;5.03;;
33579;SDS011;19909;43.644;-79.438;2024-01-27T12:48:03;6.80;;;4.68;;
33579;SDS011;19909;43.644;-79.438;2024-01-27T12:50:31;4.53;;;3.53;;
33579;SDS011;19909;43.644;-79.438;2024-01-27T12:52:58;6.00;;;3.67;;
33579;SDS011;19909;43.644;-79.438;2024-01-27T12:55:25;4.82;;;3.15;;
33579;SDS011;19909;43.644;-79.438;2024-01-27T12:57:51;3.97;;;3.38;;
33579;SDS011;19909;43.644;-79.438;2024-01-27T13:00:19;3.97;;;3.40;;
33579;SDS011;19909;43.644;-79.438;2024-01-27T13:02:45;3.95;;;2.90;;
33579;SDS011;19909;43.644;-79.438;2024-01-27T13:05:12;4.63;;;3.60;;
33579;SDS011;19909;43.644;-79.438;2024-01-27T13:07:38;4.15;;;3.30;;
33579;SDS011;19909;43.644;-79.438;2024-01-27T13:10:05;4.25;;;3.25;;
33579;SDS011;19909;43.644;-79.438;2024-01-27T13:12:32;5.55;;;4.05;;
33579;SDS011;19909;43.644;-79.438;2024-01-27T13:14:59;5.68;;;4.35;;
33579;SDS011;19909;43.644;-79.438;2024-01-27T13:17:26;5.03;;;4.20;;
33579;SDS011;19909;43.644;-79.438;2024-01-27T13:19:53;5.38;;;3.75;;
33579;SDS011;19909;43.644;-79.438;2024-01-27T13:22:20;5.20;;;4.07;;
33579;SDS011;19909;43.644;-79.438;2024-01-27T13:24:50;5.80;;;4.13;;
33579;SDS011;19909;43.644;-79.438;2024-01-27T13:27:17;5.47;;;4.28;;
33579;SDS011;19909;43.644;-79.438;2024-01-27T13:29:44;6.03;;;4.35;;
33579;SDS011;19909;43.644;-79.438;2024-01-27T13:32:11;5.57;;;4.07;;
33579;SDS011;19909;43.644;-79.438;2024-01-27T13:34:37;4.72;;;3.70;;
33579;SDS011;19909;43.644;-79.438;2024-01-27T13:37:05;6.35;;;4.13;;
33579;SDS011;19909;43.644;-79.438;2024-01-27T13:39:34;5.10;;;3.40;;
33579;SDS011;19909;43.644;-79.438;2024-01-27T13:42:01;5.65;;;3.50;;
33579;SDS011;19909;43.644;-79.438;2024-01-27T13:44:27;3.42;;;2.72;;
33579;SDS011;19909;43.644;-79.438;2024-01-27T13:46:55;4.63;;;3.33;;
33579;SDS011;19909;43.644;-79.438;2024-01-27T13:49:25;4.93;;;3.47;;
33579;SDS011;19909;43.644;-79.438;2024-01-27T13:51:52;4.85;;;3.55;;
33579;SDS011;19909;43.644;-79.438;2024-01-27T13:54:18;4.30;;;3.58;;
33579;SDS011;19909;43.644;-79.438;2024-01-27T13:56:45;5.28;;;3.70;;
33579;SDS011;19909;43.644;-79.438;2024-01-27T13:59:11;5.15;;;3.67;;
33579;SDS011;19909;43.644;-79.438;2024-01-27T14:01:37;4.80;;;3.67;;
33579;SDS011;19909;43.644;-79.438;2024-01-27T14:04:03;4.75;;;3.83;;
33579;SDS011;19909;43.644;-79.438;2024-01-27T14:06:30;5.40;;;3.85;;
33579;SDS011;19909;43.644;-79.438;2024-01-27T14:08:56;6.70;;;4.50;;
33579;SDS011;19909;43.644;-79.438;2024-01-27T14:11:23;5.43;;;4.10;;
33579;SDS011;19909;43.644;-79.438;2024-01-27T14:13:49;5.97;;;4.22;;
33579;SDS011;19909;43.644;-79.438;2024-01-27T14:16:15;5.72;;;4.30;;
33579;SDS011;19909;43.644;-79.438;2024-01-27T14:18:41;6.00;;;4.43;;
33579;SDS011;19909;43.644;-79.438;2024-01-27T14:21:07;5.78;;;3.95;;
33579;SDS011;19909;43.644;-79.438;2024-01-27T14:23:34;4.70;;;3.88;;
33579;SDS011;19909;43.644;-79.438;2024-01-27T14:26:00;5.05;;;3.42;;